Terminal Aerodrome Forecast
Issued by NWS

Home | Current Version | Previous Version | Text Only | Print | Product List | Glossary On
Versions: 1 2 3 4 5 6 7 8 9 10 11 12 13 14 15 16 17 18 19
421
FTUS41 KPBZ 050359 AAC
TAFZZV
TAF AMD
KZZV 050359Z 0504/0524 22005KT 5SM BR OVC008
     FM050900 26008KT 5SM BR BKN015
     FM051600 30004KT P6SM BKN035=

USA.gov is the U.S. government's official web portal to all federal, state and local government web resources and services.